sensor_id;sensor_type;location;lat;lon;timestamp;P1;durP1;ratioP1;P2;durP2;ratioP2
47153;SDS011;32907;41.412;2.164;2022-09-09T00:01:49;5.57;;;1.60;;
47153;SDS011;32907;41.412;2.164;2022-09-09T00:09:55;4.65;;;1.70;;
47153;SDS011;32907;41.412;2.164;2022-09-09T00:15:25;3.58;;;1.77;;
47153;SDS011;32907;41.412;2.164;2022-09-09T00:20:58;4.70;;;1.80;;
47153;SDS011;32907;41.412;2.164;2022-09-09T00:23:35;6.13;;;2.00;;
47153;SDS011;32907;41.412;2.164;2022-09-09T00:31:31;4.55;;;1.40;;
47153;SDS011;32907;41.412;2.164;2022-09-09T00:34:03;3.22;;;1.50;;
47153;SDS011;32907;41.412;2.164;2022-09-09T00:36:40;4.65;;;1.80;;
47153;SDS011;32907;41.412;2.164;2022-09-09T00:39:17;4.70;;;1.88;;
47153;SDS011;32907;41.412;2.164;2022-09-09T00:47:23;6.72;;;1.50;;
47153;SDS011;32907;41.412;2.164;2022-09-09T00:55:43;5.13;;;1.65;;
47153;SDS011;32907;41.412;2.164;2022-09-09T00:58:16;4.55;;;1.55;;
47153;SDS011;32907;41.412;2.164;2022-09-09T01:00:50;3.47;;;1.20;;
47153;SDS011;32907;41.412;2.164;2022-09-09T01:03:36;4.45;;;1.70;;
47153;SDS011;32907;41.412;2.164;2022-09-09T01:08:58;5.05;;;1.70;;
47153;SDS011;32907;41.412;2.164;2022-09-09T01:14:48;4.95;;;1.77;;
47153;SDS011;32907;41.412;2.164;2022-09-09T01:17:30;3.40;;;1.23;;
47153;SDS011;32907;41.412;2.164;2022-09-09T01:20:15;3.80;;;1.50;;
47153;SDS011;32907;41.412;2.164;2022-09-09T01:28:38;5.00;;;1.67;;
47153;SDS011;32907;41.412;2.164;2022-09-09T01:31:12;5.95;;;2.08;;
47153;SDS011;32907;41.412;2.164;2022-09-09T01:33:46;5.28;;;1.45;;
47153;SDS011;32907;41.412;2.164;2022-09-09T01:36:17;3.58;;;1.83;;
47153;SDS011;32907;41.412;2.164;2022-09-09T01:38:52;3.15;;;1.80;;
47153;SDS011;32907;41.412;2.164;2022-09-09T01:41:21;5.45;;;2.00;;
47153;SDS011;32907;41.412;2.164;2022-09-09T01:44:10;3.83;;;1.80;;
47153;SDS011;32907;41.412;2.164;2022-09-09T01:46:42;5.13;;;1.80;;
47153;SDS011;32907;41.412;2.164;2022-09-09T01:49:15;3.83;;;1.63;;
47153;SDS011;32907;41.412;2.164;2022-09-09T01:51:46;3.63;;;1.75;;
47153;SDS011;32907;41.412;2.164;2022-09-09T01:54:24;3.72;;;1.80;;
47153;SDS011;32907;41.412;2.164;2022-09-09T02:05:28;3.20;;;1.60;;
47153;SDS011;32907;41.412;2.164;2022-09-09T02:08:08;6.15;;;2.10;;
47153;SDS011;32907;41.412;2.164;2022-09-09T02:11:00;5.93;;;2.20;;
47153;SDS011;32907;41.412;2.164;2022-09-09T02:13:43;5.03;;;1.90;;
47153;SDS011;32907;41.412;2.164;2022-09-09T02:22:24;3.90;;;1.73;;
47153;SDS011;32907;41.412;2.164;2022-09-09T02:24:56;4.82;;;1.70;;
47153;SDS011;32907;41.412;2.164;2022-09-09T02:27:29;8.45;;;2.17;;
47153;SDS011;32907;41.412;2.164;2022-09-09T02:29:58;4.30;;;2.10;;
47153;SDS011;32907;41.412;2.164;2022-09-09T02:32:36;4.15;;;1.85;;
47153;SDS011;32907;41.412;2.164;2022-09-09T02:35:10;3.58;;;1.25;;
47153;SDS011;32907;41.412;2.164;2022-09-09T02:37:43;4.50;;;1.48;;
47153;SDS011;32907;41.412;2.164;2022-09-09T02:40:16;4.32;;;1.50;;
47153;SDS011;32907;41.412;2.164;2022-09-09T02:42:48;5.13;;;1.90;;
47153;SDS011;32907;41.412;2.164;2022-09-09T02:45:20;3.90;;;1.77;;
47153;SDS011;32907;41.412;2.164;2022-09-09T02:48:02;4.90;;;1.77;;
47153;SDS011;32907;41.412;2.164;2022-09-09T02:51:01;5.05;;;2.08;;
47153;SDS011;32907;41.412;2.164;2022-09-09T02:56:25;3.90;;;1.73;;
47153;SDS011;32907;41.412;2.164;2022-09-09T02:58:58;2.60;;;1.50;;
47153;SDS011;32907;41.412;2.164;2022-09-09T03:01:26;3.92;;;1.73;;
47153;SDS011;32907;41.412;2.164;2022-09-09T03:03:54;4.32;;;1.45;;
47153;SDS011;32907;41.412;2.164;2022-09-09T03:06:23;3.92;;;1.60;;
47153;SDS011;32907;41.412;2.164;2022-09-09T03:09:01;4.75;;;1.40;;
47153;SDS011;32907;41.412;2.164;2022-09-09T03:11:30;2.88;;;1.27;;
47153;SDS011;32907;41.412;2.164;2022-09-09T03:13:58;4.95;;;1.40;;
47153;SDS011;32907;41.412;2.164;2022-09-09T03:16:29;4.80;;;1.30;;
47153;SDS011;32907;41.412;2.164;2022-09-09T03:18:57;3.53;;;1.58;;
47153;SDS011;32907;41.412;2.164;2022-09-09T03:21:25;3.30;;;1.30;;
47153;SDS011;32907;41.412;2.164;2022-09-09T03:23:54;4.00;;;1.48;;
47153;SDS011;32907;41.412;2.164;2022-09-09T03:26:21;5.00;;;1.27;;
47153;SDS011;32907;41.412;2.164;2022-09-09T03:28:50;3.08;;;0.85;;
47153;SDS011;32907;41.412;2.164;2022-09-09T03:31:21;4.03;;;1.20;;
47153;SDS011;32907;41.412;2.164;2022-09-09T03:33:50;3.60;;;1.30;;
47153;SDS011;32907;41.412;2.164;2022-09-09T03:36:20;2.97;;;1.00;;
47153;SDS011;32907;41.412;2.164;2022-09-09T03:38:48;2.33;;;0.88;;
47153;SDS011;32907;41.412;2.164;2022-09-09T03:41:18;4.03;;;1.20;;
47153;SDS011;32907;41.412;2.164;2022-09-09T03:43:47;3.85;;;1.23;;
47153;SDS011;32907;41.412;2.164;2022-09-09T03:46:17;3.45;;;1.20;;
47153;SDS011;32907;41.412;2.164;2022-09-09T03:48:45;2.20;;;1.00;;
47153;SDS011;32907;41.412;2.164;2022-09-09T03:51:13;2.92;;;0.90;;
47153;SDS011;32907;41.412;2.164;2022-09-09T03:53:41;1.75;;;0.85;;
47153;SDS011;32907;41.412;2.164;2022-09-09T03:56:10;3.45;;;0.88;;
47153;SDS011;32907;41.412;2.164;2022-09-09T03:58:38;3.53;;;1.00;;
47153;SDS011;32907;41.412;2.164;2022-09-09T04:01:08;2.20;;;0.85;;
47153;SDS011;32907;41.412;2.164;2022-09-09T04:03:39;2.70;;;1.10;;
47153;SDS011;32907;41.412;2.164;2022-09-09T04:06:08;2.72;;;1.02;;
47153;SDS011;32907;41.412;2.164;2022-09-09T04:08:38;2.75;;;0.90;;
47153;SDS011;32907;41.412;2.164;2022-09-09T04:11:06;3.78;;;1.15;;
47153;SDS011;32907;41.412;2.164;2022-09-09T04:13:36;2.65;;;0.90;;
47153;SDS011;32907;41.412;2.164;2022-09-09T04:16:10;2.50;;;0.90;;
47153;SDS011;32907;41.412;2.164;2022-09-09T04:18:42;2.55;;;0.77;;
47153;SDS011;32907;41.412;2.164;2022-09-09T04:21:12;2.88;;;0.70;;
47153;SDS011;32907;41.412;2.164;2022-09-09T04:23:40;4.22;;;1.02;;
47153;SDS011;32907;41.412;2.164;2022-09-09T04:26:08;2.05;;;0.77;;
47153;SDS011;32907;41.412;2.164;2022-09-09T04:28:37;2.60;;;1.20;;
47153;SDS011;32907;41.412;2.164;2022-09-09T04:31:15;4.68;;;1.45;;
47153;SDS011;32907;41.412;2.164;2022-09-09T04:33:47;3.88;;;1.20;;
47153;SDS011;32907;41.412;2.164;2022-09-09T04:39:09;2.30;;;1.05;;
47153;SDS011;32907;41.412;2.164;2022-09-09T04:41:38;3.70;;;1.40;;
47153;SDS011;32907;41.412;2.164;2022-09-09T04:44:08;2.75;;;1.20;;
47153;SDS011;32907;41.412;2.164;2022-09-09T04:46:37;4.50;;;1.42;;
47153;SDS011;32907;41.412;2.164;2022-09-09T04:49:06;3.03;;;1.58;;
47153;SDS011;32907;41.412;2.164;2022-09-09T04:51:46;3.72;;;1.55;;
47153;SDS011;32907;41.412;2.164;2022-09-09T04:54:26;5.13;;;1.55;;
47153;SDS011;32907;41.412;2.164;2022-09-09T04:56:55;6.65;;;1.50;;
47153;SDS011;32907;41.412;2.164;2022-09-09T04:59:28;3.72;;;1.70;;
47153;SDS011;32907;41.412;2.164;2022-09-09T05:01:58;3.58;;;1.35;;
47153;SDS011;32907;41.412;2.164;2022-09-09T05:04:28;4.07;;;1.60;;
47153;SDS011;32907;41.412;2.164;2022-09-09T05:06:56;3.88;;;1.42;;
47153;SDS011;32907;41.412;2.164;2022-09-09T05:09:24;4.88;;;1.40;;
47153;SDS011;32907;41.412;2.164;2022-09-09T05:11:52;3.22;;;1.50;;
47153;SDS011;32907;41.412;2.164;2022-09-09T05:14:26;3.22;;;1.10;;
47153;SDS011;32907;41.412;2.164;2022-09-09T05:16:54;4.10;;;1.05;;
47153;SDS011;32907;41.412;2.164;2022-09-09T05:19:23;4.68;;;1.42;;
47153;SDS011;32907;41.412;2.164;2022-09-09T05:21:53;3.17;;;1.13;;
47153;SDS011;32907;41.412;2.164;2022-09-09T05:24:26;3.50;;;1.73;;
47153;SDS011;32907;41.412;2.164;2022-09-09T05:26:57;3.85;;;1.60;;
47153;SDS011;32907;41.412;2.164;2022-09-09T05:29:27;3.20;;;1.30;;
47153;SDS011;32907;41.412;2.164;2022-09-09T05:31:56;3.67;;;1.58;;
47153;SDS011;32907;41.412;2.164;2022-09-09T05:34:24;3.20;;;1.60;;
47153;SDS011;32907;41.412;2.164;2022-09-09T05:36:52;6.43;;;1.80;;
47153;SDS011;32907;41.412;2.164;2022-09-09T05:39:23;2.72;;;1.25;;
47153;SDS011;32907;41.412;2.164;2022-09-09T05:41:51;4.47;;;1.77;;
47153;SDS011;32907;41.412;2.164;2022-09-09T05:44:20;7.35;;;2.03;;
47153;SDS011;32907;41.412;2.164;2022-09-09T05:46:47;6.90;;;1.60;;
47153;SDS011;32907;41.412;2.164;2022-09-09T05:49:16;3.90;;;1.60;;
47153;SDS011;32907;41.412;2.164;2022-09-09T05:51:45;4.60;;;1.50;;
47153;SDS011;32907;41.412;2.164;2022-09-09T05:54:14;5.55;;;1.67;;
47153;SDS011;32907;41.412;2.164;2022-09-09T05:56:46;8.02;;;1.60;;
47153;SDS011;32907;41.412;2.164;2022-09-09T05:59:18;4.80;;;1.90;;
47153;SDS011;32907;41.412;2.164;2022-09-09T06:01:47;6.28;;;1.90;;
47153;SDS011;32907;41.412;2.164;2022-09-09T06:06:52;13.32;;;2.45;;
47153;SDS011;32907;41.412;2.164;2022-09-09T06:09:24;11.32;;;1.98;;
47153;SDS011;32907;41.412;2.164;2022-09-09T06:11:55;6.80;;;1.83;;
47153;SDS011;32907;41.412;2.164;2022-09-09T06:14:23;9.57;;;2.00;;
47153;SDS011;32907;41.412;2.164;2022-09-09T06:16:53;7.60;;;1.88;;
47153;SDS011;32907;41.412;2.164;2022-09-09T06:19:25;4.53;;;1.70;;
47153;SDS011;32907;41.412;2.164;2022-09-09T06:21:56;6.93;;;1.70;;
47153;SDS011;32907;41.412;2.164;2022-09-09T06:24:24;5.20;;;1.30;;
47153;SDS011;32907;41.412;2.164;2022-09-09T06:26:52;3.53;;;1.40;;
47153;SDS011;32907;41.412;2.164;2022-09-09T06:29:26;5.25;;;1.85;;
47153;SDS011;32907;41.412;2.164;2022-09-09T06:31:54;4.35;;;1.42;;
47153;SDS011;32907;41.412;2.164;2022-09-09T06:34:25;3.95;;;1.40;;
47153;SDS011;32907;41.412;2.164;2022-09-09T06:36:56;4.90;;;1.50;;
47153;SDS011;32907;41.412;2.164;2022-09-09T06:39:37;8.73;;;1.50;;
47153;SDS011;32907;41.412;2.164;2022-09-09T06:42:09;4.63;;;1.20;;
47153;SDS011;32907;41.412;2.164;2022-09-09T06:44:46;6.88;;;1.40;;
47153;SDS011;32907;41.412;2.164;2022-09-09T06:47:28;5.20;;;1.38;;
47153;SDS011;32907;41.412;2.164;2022-09-09T06:49:57;3.70;;;1.27;;
47153;SDS011;32907;41.412;2.164;2022-09-09T06:52:25;5.68;;;1.50;;
47153;SDS011;32907;41.412;2.164;2022-09-09T06:54:55;4.65;;;2.40;;
47153;SDS011;32907;41.412;2.164;2022-09-09T06:57:26;8.55;;;3.20;;
47153;SDS011;32907;41.412;2.164;2022-09-09T07:00:15;15.45;;;3.10;;
47153;SDS011;32907;41.412;2.164;2022-09-09T07:02:44;12.55;;;2.97;;
47153;SDS011;32907;41.412;2.164;2022-09-09T07:05:13;12.30;;;2.95;;
47153;SDS011;32907;41.412;2.164;2022-09-09T07:07:46;18.05;;;3.50;;
47153;SDS011;32907;41.412;2.164;2022-09-09T07:10:16;11.07;;;2.42;;
47153;SDS011;32907;41.412;2.164;2022-09-09T07:12:46;8.55;;;2.03;;
47153;SDS011;32907;41.412;2.164;2022-09-09T07:15:21;12.30;;;2.40;;
47153;SDS011;32907;41.412;2.164;2022-09-09T07:17:50;6.97;;;1.77;;
47153;SDS011;32907;41.412;2.164;2022-09-09T07:20:19;6.65;;;1.70;;
47153;SDS011;32907;41.412;2.164;2022-09-09T07:22:47;7.35;;;1.75;;
47153;SDS011;32907;41.412;2.164;2022-09-09T07:25:15;8.45;;;1.80;;
47153;SDS011;32907;41.412;2.164;2022-09-09T07:27:46;5.65;;;1.40;;
47153;SDS011;32907;41.412;2.164;2022-09-09T07:30:15;8.43;;;1.90;;
47153;SDS011;32907;41.412;2.164;2022-09-09T07:32:52;5.22;;;1.30;;
47153;SDS011;32907;41.412;2.164;2022-09-09T07:35:20;4.97;;;1.23;;
47153;SDS011;32907;41.412;2.164;2022-09-09T07:37:48;5.70;;;1.73;;
47153;SDS011;32907;41.412;2.164;2022-09-09T07:40:19;3.67;;;1.23;;
47153;SDS011;32907;41.412;2.164;2022-09-09T07:42:50;11.18;;;1.90;;
47153;SDS011;32907;41.412;2.164;2022-09-09T07:45:18;8.38;;;1.70;;
47153;SDS011;32907;41.412;2.164;2022-09-09T07:47:46;6.90;;;1.70;;
47153;SDS011;32907;41.412;2.164;2022-09-09T07:50:17;6.47;;;1.98;;
47153;SDS011;32907;41.412;2.164;2022-09-09T07:52:47;7.65;;;2.00;;
47153;SDS011;32907;41.412;2.164;2022-09-09T07:55:15;8.38;;;1.40;;
47153;SDS011;32907;41.412;2.164;2022-09-09T07:57:43;5.97;;;1.58;;
47153;SDS011;32907;41.412;2.164;2022-09-09T08:00:14;5.95;;;1.50;;
47153;SDS011;32907;41.412;2.164;2022-09-09T08:02:48;6.47;;;1.65;;
47153;SDS011;32907;41.412;2.164;2022-09-09T08:05:16;6.40;;;2.00;;
47153;SDS011;32907;41.412;2.164;2022-09-09T08:07:47;4.65;;;1.60;;
47153;SDS011;32907;41.412;2.164;2022-09-09T08:10:15;4.90;;;1.50;;
47153;SDS011;32907;41.412;2.164;2022-09-09T08:12:45;6.03;;;1.83;;
47153;SDS011;32907;41.412;2.164;2022-09-09T08:15:38;6.40;;;2.00;;
47153;SDS011;32907;41.412;2.164;2022-09-09T08:18:08;8.98;;;2.10;;
47153;SDS011;32907;41.412;2.164;2022-09-09T08:20:37;8.18;;;2.28;;
47153;SDS011;32907;41.412;2.164;2022-09-09T08:23:06;8.38;;;1.98;;
47153;SDS011;32907;41.412;2.164;2022-09-09T08:25:35;7.82;;;2.47;;
47153;SDS011;32907;41.412;2.164;2022-09-09T08:28:04;8.88;;;2.15;;
47153;SDS011;32907;41.412;2.164;2022-09-09T08:30:32;13.75;;;2.00;;
47153;SDS011;32907;41.412;2.164;2022-09-09T08:33:00;15.80;;;2.65;;
47153;SDS011;32907;41.412;2.164;2022-09-09T08:35:28;15.43;;;2.28;;
47153;SDS011;32907;41.412;2.164;2022-09-09T08:38:02;7.60;;;2.03;;
47153;SDS011;32907;41.412;2.164;2022-09-09T08:40:37;5.72;;;1.90;;
47153;SDS011;32907;41.412;2.164;2022-09-09T08:43:11;6.78;;;2.00;;
47153;SDS011;32907;41.412;2.164;2022-09-09T08:45:50;5.95;;;2.10;;
47153;SDS011;32907;41.412;2.164;2022-09-09T08:48:50;6.15;;;1.63;;
47153;SDS011;32907;41.412;2.164;2022-09-09T08:51:33;7.10;;;1.92;;
47153;SDS011;32907;41.412;2.164;2022-09-09T08:54:02;7.60;;;2.05;;
47153;SDS011;32907;41.412;2.164;2022-09-09T08:56:32;5.68;;;2.05;;
47153;SDS011;32907;41.412;2.164;2022-09-09T08:59:02;7.55;;;2.30;;
47153;SDS011;32907;41.412;2.164;2022-09-09T09:01:47;7.97;;;2.10;;
47153;SDS011;32907;41.412;2.164;2022-09-09T09:07:17;6.85;;;1.98;;
47153;SDS011;32907;41.412;2.164;2022-09-09T09:13:00;6.00;;;2.00;;
47153;SDS011;32907;41.412;2.164;2022-09-09T09:15:31;8.10;;;1.98;;
47153;SDS011;32907;41.412;2.164;2022-09-09T09:18:04;10.25;;;2.90;;
47153;SDS011;32907;41.412;2.164;2022-09-09T09:20:42;10.63;;;3.00;;
47153;SDS011;32907;41.412;2.164;2022-09-09T09:23:59;10.35;;;2.63;;
47153;SDS011;32907;41.412;2.164;2022-09-09T09:26:33;11.48;;;2.85;;
47153;SDS011;32907;41.412;2.164;2022-09-09T09:29:15;9.55;;;2.70;;
47153;SDS011;32907;41.412;2.164;2022-09-09T09:31:45;9.20;;;3.13;;
47153;SDS011;32907;41.412;2.164;2022-09-09T09:34:24;13.77;;;3.15;;
47153;SDS011;32907;41.412;2.164;2022-09-09T09:36:56;14.57;;;3.28;;
47153;SDS011;32907;41.412;2.164;2022-09-09T09:39:38;15.45;;;3.97;;
47153;SDS011;32907;41.412;2.164;2022-09-09T09:42:51;12.50;;;2.95;;
47153;SDS011;32907;41.412;2.164;2022-09-09T09:45:41;8.82;;;3.10;;
47153;SDS011;32907;41.412;2.164;2022-09-09T09:48:34;11.60;;;2.63;;
47153;SDS011;32907;41.412;2.164;2022-09-09T09:51:05;10.02;;;2.88;;
47153;SDS011;32907;41.412;2.164;2022-09-09T09:53:40;10.70;;;2.70;;
47153;SDS011;32907;41.412;2.164;2022-09-09T09:56:11;14.63;;;3.40;;
47153;SDS011;32907;41.412;2.164;2022-09-09T10:01:31;12.73;;;2.80;;
47153;SDS011;32907;41.412;2.164;2022-09-09T10:04:14;62.13;;;7.30;;
47153;SDS011;32907;41.412;2.164;2022-09-09T10:06:46;616.08;;;78.90;;
47153;SDS011;32907;41.412;2.164;2022-09-09T10:09:24;326.88;;;36.80;;
47153;SDS011;32907;41.412;2.164;2022-09-09T10:12:05;70.10;;;11.70;;
47153;SDS011;32907;41.412;2.164;2022-09-09T10:20:04;23.27;;;4.30;;
47153;SDS011;32907;41.412;2.164;2022-09-09T10:22:39;59.15;;;8.15;;
47153;SDS011;32907;41.412;2.164;2022-09-09T10:25:22;44.42;;;6.57;;
47153;SDS011;32907;41.412;2.164;2022-09-09T10:28:31;28.50;;;4.57;;
47153;SDS011;32907;41.412;2.164;2022-09-09T10:36:43;30.02;;;3.75;;
47153;SDS011;32907;41.412;2.164;2022-09-09T10:56:30;13.30;;;2.97;;
47153;SDS011;32907;41.412;2.164;2022-09-09T10:59:00;13.18;;;4.93;;
47153;SDS011;32907;41.412;2.164;2022-09-09T11:01:38;10.93;;;4.80;;
47153;SDS011;32907;41.412;2.164;2022-09-09T11:04:21;12.00;;;3.42;;
47153;SDS011;32907;41.412;2.164;2022-09-09T11:06:53;8.65;;;2.55;;
47153;SDS011;32907;41.412;2.164;2022-09-09T11:09:25;10.65;;;2.35;;
47153;SDS011;32907;41.412;2.164;2022-09-09T11:11:57;10.90;;;2.17;;
47153;SDS011;32907;41.412;2.164;2022-09-09T11:14:34;21.55;;;2.63;;
47153;SDS011;32907;41.412;2.164;2022-09-09T11:17:12;130.18;;;16.63;;
47153;SDS011;32907;41.412;2.164;2022-09-09T11:19:44;154.38;;;17.80;;
47153;SDS011;32907;41.412;2.164;2022-09-09T11:22:15;43.17;;;7.10;;
47153;SDS011;32907;41.412;2.164;2022-09-09T11:30:22;18.15;;;3.35;;
47153;SDS011;32907;41.412;2.164;2022-09-09T11:39:02;8.50;;;2.90;;
47153;SDS011;32907;41.412;2.164;2022-09-09T11:41:37;7.63;;;1.80;;
47153;SDS011;32907;41.412;2.164;2022-09-09T11:44:12;5.68;;;1.88;;
47153;SDS011;32907;41.412;2.164;2022-09-09T11:46:48;6.28;;;1.50;;
47153;SDS011;32907;41.412;2.164;2022-09-09T11:55:20;8.20;;;1.70;;
47153;SDS011;32907;41.412;2.164;2022-09-09T12:03:31;5.95;;;2.15;;
47153;SDS011;32907;41.412;2.164;2022-09-09T12:06:29;3.92;;;1.70;;
47153;SDS011;32907;41.412;2.164;2022-09-09T12:11:50;7.65;;;1.48;;
47153;SDS011;32907;41.412;2.164;2022-09-09T12:14:23;6.75;;;2.00;;
47153;SDS011;32907;41.412;2.164;2022-09-09T12:17:22;5.20;;;1.83;;
47153;SDS011;32907;41.412;2.164;2022-09-09T12:20:03;4.75;;;2.05;;
47153;SDS011;32907;41.412;2.164;2022-09-09T12:31:20;10.25;;;5.32;;
47153;SDS011;32907;41.412;2.164;2022-09-09T12:33:55;10.80;;;4.70;;
47153;SDS011;32907;41.412;2.164;2022-09-09T12:36:24;51.20;;;25.48;;
47153;SDS011;32907;41.412;2.164;2022-09-09T12:38:58;251.80;;;128.48;;
47153;SDS011;32907;41.412;2.164;2022-09-09T12:41:38;85.28;;;50.10;;
47153;SDS011;32907;41.412;2.164;2022-09-09T12:44:06;46.65;;;26.60;;
47153;SDS011;32907;41.412;2.164;2022-09-09T12:46:41;32.05;;;13.90;;
47153;SDS011;32907;41.412;2.164;2022-09-09T12:51:54;29.45;;;5.88;;
47153;SDS011;32907;41.412;2.164;2022-09-09T12:54:24;22.52;;;4.93;;
47153;SDS011;32907;41.412;2.164;2022-09-09T12:56:52;27.40;;;4.60;;
47153;SDS011;32907;41.412;2.164;2022-09-09T12:59:24;19.83;;;3.42;;
47153;SDS011;32907;41.412;2.164;2022-09-09T13:01:57;18.60;;;3.15;;
47153;SDS011;32907;41.412;2.164;2022-09-09T13:04:26;17.40;;;3.60;;
47153;SDS011;32907;41.412;2.164;2022-09-09T13:07:05;15.48;;;3.33;;
47153;SDS011;32907;41.412;2.164;2022-09-09T13:09:37;19.65;;;3.00;;
47153;SDS011;32907;41.412;2.164;2022-09-09T13:12:06;17.65;;;3.15;;
47153;SDS011;32907;41.412;2.164;2022-09-09T13:14:42;23.77;;;6.63;;
47153;SDS011;32907;41.412;2.164;2022-09-09T13:17:19;12.98;;;4.50;;
47153;SDS011;32907;41.412;2.164;2022-09-09T13:19:49;22.50;;;7.93;;
47153;SDS011;32907;41.412;2.164;2022-09-09T13:22:21;21.88;;;9.88;;
47153;SDS011;32907;41.412;2.164;2022-09-09T13:24:59;20.45;;;4.72;;
47153;SDS011;32907;41.412;2.164;2022-09-09T13:27:39;14.48;;;3.58;;
47153;SDS011;32907;41.412;2.164;2022-09-09T13:30:21;14.30;;;3.00;;
47153;SDS011;32907;41.412;2.164;2022-09-09T13:33:01;7.97;;;2.28;;
47153;SDS011;32907;41.412;2.164;2022-09-09T13:38:06;27.73;;;3.63;;
47153;SDS011;32907;41.412;2.164;2022-09-09T13:40:36;48.30;;;5.30;;
47153;SDS011;32907;41.412;2.164;2022-09-09T13:43:05;29.25;;;4.28;;
47153;SDS011;32907;41.412;2.164;2022-09-09T13:45:52;27.55;;;3.60;;
47153;SDS011;32907;41.412;2.164;2022-09-09T13:48:24;23.67;;;3.28;;
47153;SDS011;32907;41.412;2.164;2022-09-09T13:50:53;23.25;;;3.65;;
47153;SDS011;32907;41.412;2.164;2022-09-09T13:53:34;27.33;;;3.50;;
47153;SDS011;32907;41.412;2.164;2022-09-09T13:56:03;23.83;;;3.20;;
47153;SDS011;32907;41.412;2.164;2022-09-09T13:58:30;19.08;;;3.03;;
47153;SDS011;32907;41.412;2.164;2022-09-09T14:00:58;18.65;;;3.13;;
47153;SDS011;32907;41.412;2.164;2022-09-09T14:03:26;31.20;;;3.50;;
47153;SDS011;32907;41.412;2.164;2022-09-09T14:05:54;35.72;;;4.25;;
47153;SDS011;32907;41.412;2.164;2022-09-09T14:08:25;35.42;;;4.57;;
47153;SDS011;32907;41.412;2.164;2022-09-09T14:10:57;65.28;;;7.88;;
47153;SDS011;32907;41.412;2.164;2022-09-09T14:13:25;312.60;;;31.67;;
47153;SDS011;32907;41.412;2.164;2022-09-09T14:15:53;325.75;;;35.25;;
47153;SDS011;32907;41.412;2.164;2022-09-09T14:18:21;236.68;;;28.70;;
47153;SDS011;32907;41.412;2.164;2022-09-09T14:20:50;175.48;;;19.88;;
47153;SDS011;32907;41.412;2.164;2022-09-09T14:23:18;159.98;;;21.35;;
47153;SDS011;32907;41.412;2.164;2022-09-09T14:25:46;84.70;;;12.05;;
47153;SDS011;32907;41.412;2.164;2022-09-09T14:28:15;59.53;;;7.18;;
47153;SDS011;32907;41.412;2.164;2022-09-09T14:30:49;38.20;;;6.53;;
47153;SDS011;32907;41.412;2.164;2022-09-09T14:33:16;25.95;;;4.40;;
47153;SDS011;32907;41.412;2.164;2022-09-09T14:35:47;1469.63;;;206.55;;
47153;SDS011;32907;41.412;2.164;2022-09-09T14:38:17;1254.30;;;183.27;;
47153;SDS011;32907;41.412;2.164;2022-09-09T14:40:45;602.72;;;80.53;;
47153;SDS011;32907;41.412;2.164;2022-09-09T14:43:14;1999.90;;;790.70;;
47153;SDS011;32907;41.412;2.164;2022-09-09T14:45:42;1999.90;;;681.35;;
47153;SDS011;32907;41.412;2.164;2022-09-09T14:48:11;1999.90;;;715.70;;
47153;SDS011;32907;41.412;2.164;2022-09-09T14:50:38;1999.90;;;700.92;;
47153;SDS011;32907;41.412;2.164;2022-09-09T14:53:08;1999.90;;;378.92;;
47153;SDS011;32907;41.412;2.164;2022-09-09T14:55:37;1997.18;;;346.02;;
47153;SDS011;32907;41.412;2.164;2022-09-09T14:58:04;855.20;;;147.98;;
47153;SDS011;32907;41.412;2.164;2022-09-09T15:00:33;626.17;;;80.30;;
47153;SDS011;32907;41.412;2.164;2022-09-09T15:03:01;506.00;;;61.72;;
47153;SDS011;32907;41.412;2.164;2022-09-09T15:05:30;362.42;;;44.72;;
47153;SDS011;32907;41.412;2.164;2022-09-09T15:07:59;251.20;;;30.90;;
47153;SDS011;32907;41.412;2.164;2022-09-09T15:10:26;197.82;;;24.65;;
47153;SDS011;32907;41.412;2.164;2022-09-09T15:12:54;1999.90;;;323.55;;
47153;SDS011;32907;41.412;2.164;2022-09-09T15:15:22;1805.28;;;255.85;;
47153;SDS011;32907;41.412;2.164;2022-09-09T15:17:49;910.95;;;132.07;;
47153;SDS011;32907;41.412;2.164;2022-09-09T15:20:17;367.98;;;54.53;;
47153;SDS011;32907;41.412;2.164;2022-09-09T15:22:45;1567.00;;;250.93;;
47153;SDS011;32907;41.412;2.164;2022-09-09T15:25:14;817.63;;;124.97;;
47153;SDS011;32907;41.412;2.164;2022-09-09T15:27:42;431.25;;;64.03;;
47153;SDS011;32907;41.412;2.164;2022-09-09T15:30:11;477.13;;;62.60;;
47153;SDS011;32907;41.412;2.164;2022-09-09T15:32:39;774.38;;;99.45;;
47153;SDS011;32907;41.412;2.164;2022-09-09T15:35:07;1252.18;;;182.75;;
47153;SDS011;32907;41.412;2.164;2022-09-09T15:37:35;1999.90;;;396.45;;
47153;SDS011;32907;41.412;2.164;2022-09-09T15:40:03;1999.90;;;415.98;;
47153;SDS011;32907;41.412;2.164;2022-09-09T15:42:31;1999.90;;;402.35;;
47153;SDS011;32907;41.412;2.164;2022-09-09T15:44:59;1999.90;;;513.05;;
47153;SDS011;32907;41.412;2.164;2022-09-09T15:47:27;1999.90;;;380.30;;
47153;SDS011;32907;41.412;2.164;2022-09-09T15:49:55;1519.93;;;278.08;;
47153;SDS011;32907;41.412;2.164;2022-09-09T15:52:22;1441.45;;;230.40;;
47153;SDS011;32907;41.412;2.164;2022-09-09T15:54:50;1518.40;;;236.07;;
47153;SDS011;32907;41.412;2.164;2022-09-09T15:57:18;1147.43;;;191.55;;
47153;SDS011;32907;41.412;2.164;2022-09-09T15:59:46;1814.80;;;256.73;;
47153;SDS011;32907;41.412;2.164;2022-09-09T16:02:14;1256.50;;;212.00;;
47153;SDS011;32907;41.412;2.164;2022-09-09T16:04:42;1131.50;;;175.15;;
47153;SDS011;32907;41.412;2.164;2022-09-09T16:07:10;1348.45;;;198.13;;
47153;SDS011;32907;41.412;2.164;2022-09-09T16:09:38;781.97;;;122.07;;
47153;SDS011;32907;41.412;2.164;2022-09-09T16:12:05;1787.10;;;296.23;;
47153;SDS011;32907;41.412;2.164;2022-09-09T16:14:33;1999.90;;;500.15;;
47153;SDS011;32907;41.412;2.164;2022-09-09T16:17:03;1999.90;;;665.58;;
47153;SDS011;32907;41.412;2.164;2022-09-09T16:19:32;1999.90;;;655.72;;
47153;SDS011;32907;41.412;2.164;2022-09-09T16:22:01;1999.90;;;474.98;;
47153;SDS011;32907;41.412;2.164;2022-09-09T16:24:31;1443.63;;;272.30;;
47153;SDS011;32907;41.412;2.164;2022-09-09T16:27:01;783.80;;;131.38;;
47153;SDS011;32907;41.412;2.164;2022-09-09T16:29:30;588.25;;;88.75;;
47153;SDS011;32907;41.412;2.164;2022-09-09T16:31:59;209.15;;;32.08;;
47153;SDS011;32907;41.412;2.164;2022-09-09T16:34:30;47.78;;;9.48;;
47153;SDS011;32907;41.412;2.164;2022-09-09T16:36:58;17.23;;;3.83;;
47153;SDS011;32907;41.412;2.164;2022-09-09T16:39:26;64.82;;;8.25;;
47153;SDS011;32907;41.412;2.164;2022-09-09T16:41:56;24.65;;;3.15;;
47153;SDS011;32907;41.412;2.164;2022-09-09T16:44:24;9.88;;;1.80;;
47153;SDS011;32907;41.412;2.164;2022-09-09T16:46:53;4.63;;;1.20;;
47153;SDS011;32907;41.412;2.164;2022-09-09T16:49:27;3.50;;;1.08;;
47153;SDS011;32907;41.412;2.164;2022-09-09T16:51:59;4.72;;;1.13;;
47153;SDS011;32907;41.412;2.164;2022-09-09T16:54:27;4.90;;;1.77;;
47153;SDS011;32907;41.412;2.164;2022-09-09T16:56:56;5.88;;;1.80;;
47153;SDS011;32907;41.412;2.164;2022-09-09T16:59:26;3.80;;;1.70;;
47153;SDS011;32907;41.412;2.164;2022-09-09T17:01:54;4.97;;;2.30;;
47153;SDS011;32907;41.412;2.164;2022-09-09T17:04:24;5.43;;;1.92;;
47153;SDS011;32907;41.412;2.164;2022-09-09T17:06:55;4.88;;;2.03;;
47153;SDS011;32907;41.412;2.164;2022-09-09T17:09:25;5.00;;;1.40;;
47153;SDS011;32907;41.412;2.164;2022-09-09T17:11:56;6.28;;;1.40;;
47153;SDS011;32907;41.412;2.164;2022-09-09T17:14:24;5.68;;;1.38;;
47153;SDS011;32907;41.412;2.164;2022-09-09T17:16:54;9.40;;;1.77;;
47153;SDS011;32907;41.412;2.164;2022-09-09T17:19:21;3.17;;;1.10;;
47153;SDS011;32907;41.412;2.164;2022-09-09T17:21:49;5.15;;;1.13;;
47153;SDS011;32907;41.412;2.164;2022-09-09T17:24:37;5.47;;;1.30;;
47153;SDS011;32907;41.412;2.164;2022-09-09T17:27:06;5.68;;;2.10;;